Time;durP1;ratioP1;P1;durP2;ratioP2;P2;SDS_P1;SDS_P2;PMS_P1;PMS_P2;Temp;Humidity;BMP_temperature;BMP_pressure;BME280_temperature;BME280_humidity;BME280_pressure;Samples;Min_cycle;Max_cycle;Signal;HPM_P1;HPM_P2
2023/04/28 00:01:44;;;;;;;4.43;3.92;;;12.90;99.90;;;;;;4998943;28;20300;-70
2023/04/28 00:04:11;;;;;;;4.40;3.42;;;13.00;99.90;;;;;;5005991;28;20196;-70
2023/04/28 00:06:39;;;;;;;3.60;3.30;;;12.90;99.90;;;;;;5008709;28;20299;-70
2023/04/28 00:09:09;;;;;;;3.40;3.10;;;12.90;99.90;;;;;;5002565;28;20204;-70
2023/04/28 00:11:37;;;;;;;4.50;4.10;;;12.90;99.90;;;;;;4987950;28;20225;-69
2023/04/28 00:14:05;;;;;;;4.53;3.85;;;12.90;99.90;;;;;;4998807;28;20243;-70
2023/04/28 00:16:32;;;;;;;3.30;3.00;;;12.80;99.90;;;;;;5002710;28;20228;-69
2023/04/28 00:19:00;;;;;;;3.35;3.05;;;12.80;99.90;;;;;;4999758;28;20259;-69
2023/04/28 00:21:27;;;;;;;3.88;3.33;;;12.70;99.90;;;;;;5000351;28;20235;-69
2023/04/28 00:23:54;;;;;;;2.92;2.63;;;12.70;99.90;;;;;;5001679;28;20232;-70
2023/04/28 00:26:21;;;;;;;3.17;2.97;;;12.60;99.90;;;;;;5005938;28;20200;-69
2023/04/28 00:28:48;;;;;;;3.83;3.53;;;12.60;99.90;;;;;;5000957;28;20298;-70
2023/04/28 00:31:17;;;;;;;3.28;3.00;;;12.50;99.90;;;;;;4998657;28;20308;-70
2023/04/28 00:33:44;;;;;;;3.25;3.00;;;12.50;99.90;;;;;;4997666;28;20260;-70
2023/04/28 00:36:12;;;;;;;3.42;3.08;;;12.40;99.90;;;;;;4987232;28;20204;-69
2023/04/28 00:38:39;;;;;;;4.10;3.20;;;12.40;99.90;;;;;;5000644;28;20208;-69
2023/04/28 00:41:06;;;;;;;3.28;2.97;;;12.40;99.90;;;;;;5000317;28;20281;-70
2023/04/28 00:43:44;;;;;;;3.03;2.80;;;12.30;99.90;;;;;;4998721;28;20232;-69
2023/04/28 00:46:14;;;;;;;3.28;2.92;;;12.30;99.90;;;;;;5002958;28;20210;-69
2023/04/28 00:48:43;;;;;;;3.45;3.15;;;12.30;99.90;;;;;;5001973;28;20288;-69
2023/04/28 00:51:10;;;;;;;3.25;2.95;;;12.20;99.90;;;;;;4986201;28;20235;-69
2023/04/28 00:53:37;;;;;;;3.20;2.90;;;12.30;99.90;;;;;;5006885;28;20306;-70
2023/04/28 00:56:05;;;;;;;2.97;2.75;;;12.30;99.90;;;;;;5007335;28;20312;-69
2023/04/28 00:58:34;;;;;;;3.83;2.90;;;12.30;99.90;;;;;;4999249;28;20255;-69
2023/04/28 01:01:04;;;;;;;3.03;2.80;;;12.30;99.90;;;;;;4997572;28;20651;-69
2023/04/28 01:03:33;;;;;;;3.22;2.92;;;12.30;99.90;;;;;;5001497;28;20239;-69
2023/04/28 01:06:02;;;;;;;3.33;3.03;;;12.20;99.90;;;;;;5001423;28;20292;-69
2023/04/28 01:08:30;;;;;;;3.38;2.97;;;12.20;99.90;;;;;;5002537;28;20676;-69
2023/04/28 01:10:58;;;;;;;3.22;3.00;;;12.20;99.90;;;;;;4999560;28;20311;-69
2023/04/28 01:13:25;;;;;;;4.18;3.78;;;12.20;99.90;;;;;;5000527;28;20315;-69
2023/04/28 01:15:52;;;;;;;3.63;3.33;;;12.20;99.90;;;;;;4979622;28;20205;-69
2023/04/28 01:18:19;;;;;;;2.97;2.78;;;12.20;99.90;;;;;;4998150;28;20279;-70
2023/04/28 01:20:46;;;;;;;3.63;3.30;;;12.10;99.90;;;;;;5003692;28;20254;-69
2023/04/28 01:23:16;;;;;;;3.40;3.10;;;12.10;99.90;;;;;;5002051;28;20216;-70
2023/04/28 01:25:45;;;;;;;3.63;3.33;;;12.00;99.90;;;;;;4999707;28;20278;-70
2023/04/28 01:28:12;;;;;;;3.63;3.28;;;11.90;99.90;;;;;;5004164;28;20240;-70
2023/04/28 01:30:39;;;;;;;3.33;3.03;;;11.90;99.90;;;;;;4998741;28;20251;-69
2023/04/28 01:33:05;;;;;;;3.60;3.30;;;11.90;99.90;;;;;;4997376;28;20308;-70
2023/04/28 01:35:33;;;;;;;3.80;3.47;;;11.70;99.90;;;;;;5000973;28;20272;-69
2023/04/28 01:38:00;;;;;;;4.38;2.88;;;11.60;99.90;;;;;;4999280;28;20230;-69
2023/04/28 01:40:27;;;;;;;3.97;2.97;;;11.60;99.90;;;;;;5000207;28;20700;-69
2023/04/28 01:42:56;;;;;;;3.08;2.80;;;11.60;99.90;;;;;;4981056;28;20250;-69
2023/04/28 01:45:23;;;;;;;3.15;2.90;;;11.60;99.90;;;;;;5000485;28;20312;-70
2023/04/28 01:47:50;;;;;;;3.13;2.92;;;11.60;99.90;;;;;;4988129;28;20563;-69
2023/04/28 01:50:18;;;;;;;2.90;2.70;;;11.60;99.90;;;;;;5000503;28;20227;-69
2023/04/28 01:52:45;;;;;;;3.33;2.95;;;11.60;99.90;;;;;;4996862;28;20678;-69
2023/04/28 01:55:12;;;;;;;3.03;2.83;;;11.60;99.90;;;;;;4999066;28;20232;-69
2023/04/28 01:57:39;;;;;;;3.22;2.92;;;11.60;99.90;;;;;;4998229;28;20240;-69
2023/04/28 02:00:09;;;;;;;3.95;3.58;;;11.60;99.90;;;;;;5001294;28;20228;-69
2023/04/28 02:02:36;;;;;;;3.00;2.80;;;11.60;99.90;;;;;;4996126;28;20711;-69
2023/04/28 02:05:04;;;;;;;3.67;3.38;;;11.60;99.90;;;;;;4998848;28;20203;-69
2023/04/28 02:07:31;;;;;;;3.40;3.10;;;11.50;99.90;;;;;;4997944;28;20240;-69
2023/04/28 02:09:58;;;;;;;3.80;3.47;;;11.40;99.90;;;;;;5000038;28;20729;-69
2023/04/28 02:12:25;;;;;;;3.22;3.03;;;11.40;99.90;;;;;;4968483;28;20668;-70
2023/04/28 02:14:52;;;;;;;2.88;2.67;;;11.30;99.90;;;;;;5004278;28;20295;-69
2023/04/28 02:17:20;;;;;;;3.47;3.17;;;11.20;99.90;;;;;;4999763;28;20200;-69
2023/04/28 02:19:47;;;;;;;5.30;3.75;;;11.20;99.90;;;;;;5000761;28;20268;-69
2023/04/28 02:22:14;;;;;;;3.53;3.15;;;11.20;99.90;;;;;;4999486;28;20347;-69
2023/04/28 02:24:41;;;;;;;3.30;3.00;;;11.20;99.90;;;;;;4998403;28;20908;-69
2023/04/28 02:27:09;;;;;;;3.70;3.30;;;11.20;99.90;;;;;;4987251;28;20207;-70
2023/04/28 02:29:36;;;;;;;2.70;2.50;;;11.20;99.90;;;;;;4999275;28;20292;-69
2023/04/28 02:32:03;;;;;;;2.88;2.67;;;11.10;99.90;;;;;;5003968;28;20504;-69
2023/04/28 02:34:32;;;;;;;3.08;2.88;;;11.10;99.90;;;;;;4998260;28;20231;-69
2023/04/28 02:36:59;;;;;;;3.28;3.03;;;11.10;99.90;;;;;;4984654;28;20204;-70
2023/04/28 02:39:28;;;;;;;3.00;2.80;;;11.10;99.90;;;;;;4999342;28;20303;-70
2023/04/28 02:41:56;;;;;;;2.83;2.63;;;11.20;99.90;;;;;;4996875;28;20216;-69
2023/04/28 02:44:24;;;;;;;3.40;3.03;;;11.10;99.90;;;;;;5001132;28;20200;-70
2023/04/28 02:46:51;;;;;;;2.75;2.55;;;11.10;99.90;;;;;;4999770;28;20236;-69
2023/04/28 02:49:18;;;;;;;3.17;2.90;;;11.10;99.90;;;;;;4992507;28;20298;-69
2023/04/28 02:51:46;;;;;;;3.08;2.88;;;11.10;99.90;;;;;;4999909;28;20230;-69
2023/04/28 02:54:13;;;;;;;2.90;2.70;;;11.10;99.90;;;;;;5000363;28;20240;-69
2023/04/28 02:56:41;;;;;;;2.90;2.70;;;11.10;99.90;;;;;;4999284;28;20209;-69
2023/04/28 02:59:08;;;;;;;2.78;2.58;;;11.10;99.90;;;;;;5004390;28;20228;-69
2023/04/28 03:01:35;;;;;;;3.33;2.63;;;11.10;99.90;;;;;;5000204;28;20227;-69
2023/04/28 03:04:02;;;;;;;3.30;3.00;;;11.00;99.90;;;;;;4984749;28;20226;-70
2023/04/28 03:06:30;;;;;;;3.92;3.63;;;11.00;99.90;;;;;;4999384;28;20692;-69
2023/04/28 03:08:58;;;;;;;3.65;3.35;;;11.00;99.90;;;;;;4982511;28;20212;-69
2023/04/28 03:11:25;;;;;;;2.90;2.70;;;10.90;99.90;;;;;;5000601;28;20290;-69
2023/04/28 03:13:53;;;;;;;3.33;3.13;;;10.90;99.90;;;;;;4995207;28;20963;-69
2023/04/28 03:16:20;;;;;;;3.20;3.00;;;10.90;99.90;;;;;;4997712;28;20291;-69
2023/04/28 03:18:46;;;;;;;3.33;3.13;;;10.90;99.90;;;;;;4998027;28;20239;-69
2023/04/28 03:21:15;;;;;;;3.30;3.10;;;10.90;99.90;;;;;;4998604;28;20291;-69
2023/04/28 03:23:42;;;;;;;3.88;3.53;;;10.90;99.90;;;;;;5000434;28;20263;-69
2023/04/28 03:26:11;;;;;;;3.60;3.30;;;10.90;99.90;;;;;;4998566;28;20867;-69
2023/04/28 03:28:38;;;;;;;3.95;3.65;;;10.90;99.90;;;;;;4999542;28;20224;-69
2023/04/28 03:31:05;;;;;;;3.10;2.90;;;10.80;99.90;;;;;;4997221;28;20312;-69
2023/04/28 03:33:32;;;;;;;3.97;3.65;;;10.80;99.90;;;;;;4997878;28;20255;-69
2023/04/28 03:35:59;;;;;;;3.72;3.28;;;10.70;99.90;;;;;;4999918;28;20291;-69
2023/04/28 03:38:26;;;;;;;4.13;3.03;;;10.70;99.90;;;;;;4981018;28;20213;-69
2023/04/28 03:40:54;;;;;;;3.97;3.55;;;10.60;99.90;;;;;;4997239;28;20208;-69
2023/04/28 03:43:22;;;;;;;3.78;3.47;;;10.60;99.90;;;;;;4998257;28;20212;-69
2023/04/28 03:45:49;;;;;;;4.07;3.67;;;10.60;99.90;;;;;;4993860;28;20318;-69
2023/04/28 03:48:16;;;;;;;3.50;3.30;;;10.50;99.90;;;;;;5001596;28;20286;-70
2023/04/28 03:50:44;;;;;;;3.40;3.13;;;10.50;99.90;;;;;;4997797;28;20258;-69
2023/04/28 03:53:11;;;;;;;3.05;2.83;;;10.40;99.90;;;;;;4996512;28;20259;-70
2023/04/28 03:55:38;;;;;;;3.30;3.08;;;10.40;99.90;;;;;;4999323;28;20284;-69
2023/04/28 03:58:05;;;;;;;3.03;2.78;;;10.40;99.90;;;;;;4992341;28;20201;-69
2023/04/28 04:00:34;;;;;;;2.85;2.63;;;10.30;99.90;;;;;;4999825;28;20209;-69
2023/04/28 04:03:01;;;;;;;3.15;2.95;;;10.40;99.90;;;;;;4996290;28;20228;-69
2023/04/28 04:05:28;;;;;;;3.20;2.90;;;10.30;99.90;;;;;;5000644;28;20222;-69
2023/04/28 04:07:55;;;;;;;2.95;2.72;;;10.30;99.90;;;;;;4996675;28;20290;-69
2023/04/28 04:10:22;;;;;;;4.35;3.65;;;10.20;99.90;;;;;;4992325;28;20296;-69
2023/04/28 04:12:49;;;;;;;3.65;3.38;;;10.20;99.90;;;;;;4985373;28;21358;-69
2023/04/28 04:15:16;;;;;;;3.58;3.25;;;10.10;99.90;;;;;;5003975;28;20980;-69
2023/04/28 04:17:45;;;;;;;3.22;3.03;;;10.20;99.90;;;;;;5002767;28;20299;-69
2023/04/28 04:20:12;;;;;;;3.22;3.03;;;10.20;99.90;;;;;;5003555;28;20311;-69
2023/04/28 04:22:39;;;;;;;3.53;3.20;;;10.20;99.90;;;;;;4999961;28;20859;-69
2023/04/28 04:25:07;;;;;;;3.15;2.95;;;10.30;99.90;;;;;;5000768;28;20239;-69
2023/04/28 04:27:34;;;;;;;3.33;3.03;;;10.40;99.90;;;;;;5001453;28;20295;-69
2023/04/28 04:30:01;;;;;;;3.22;3.03;;;10.50;99.90;;;;;;4990828;28;20193;-69
2023/04/28 04:32:28;;;;;;;3.30;3.00;;;10.50;99.90;;;;;;4983738;28;20231;-69
2023/04/28 04:34:57;;;;;;;3.38;2.95;;;10.40;99.90;;;;;;4997881;28;20248;-69
2023/04/28 04:37:24;;;;;;;3.20;2.90;;;10.40;99.90;;;;;;5001842;28;20254;-69
2023/04/28 04:39:51;;;;;;;3.38;3.10;;;10.30;99.90;;;;;;4999469;28;20297;-69
2023/04/28 04:42:18;;;;;;;3.72;3.42;;;10.30;99.90;;;;;;4999236;28;20300;-68
2023/04/28 04:44:45;;;;;;;3.50;3.20;;;10.30;99.90;;;;;;5000933;28;20262;-68
2023/04/28 04:47:12;;;;;;;4.03;3.47;;;10.30;99.90;;;;;;5002724;28;20565;-68
2023/04/28 04:49:39;;;;;;;2.85;2.65;;;10.40;99.90;;;;;;5004097;28;20382;-68
2023/04/28 04:52:07;;;;;;;3.90;3.60;;;10.40;99.90;;;;;;5001061;28;20304;-68
2023/04/28 04:54:34;;;;;;;3.05;2.85;;;10.40;99.90;;;;;;4998261;28;20817;-68
2023/04/28 04:57:02;;;;;;;3.38;3.15;;;10.50;99.90;;;;;;4999803;28;20209;-68
2023/04/28 04:59:29;;;;;;;3.65;3.20;;;10.50;99.90;;;;;;4998630;28;20227;-68
2023/04/28 05:01:56;;;;;;;5.35;3.17;;;10.60;99.90;;;;;;5002356;28;20196;-69
2023/04/28 05:04:23;;;;;;;2.90;2.70;;;10.80;99.90;;;;;;4998151;28;20247;-69
2023/04/28 05:06:51;;;;;;;3.42;3.13;;;10.80;99.90;;;;;;4995811;28;20236;-68
2023/04/28 05:09:20;;;;;;;3.60;3.20;;;10.90;99.90;;;;;;4999667;28;20219;-69
2023/04/28 05:11:48;;;;;;;3.90;3.53;;;10.80;99.90;;;;;;5002155;28;20266;-70
2023/04/28 05:14:15;;;;;;;5.45;3.85;;;10.80;99.90;;;;;;4999089;28;20235;-70
2023/04/28 05:16:42;;;;;;;3.92;3.53;;;10.70;99.90;;;;;;4983626;28;20573;-70
2023/04/28 05:19:09;;;;;;;3.88;3.10;;;10.70;99.90;;;;;;4998165;28;20228;-70
2023/04/28 05:21:36;;;;;;;3.35;3.05;;;10.70;99.90;;;;;;5003010;28;20296;-69
2023/04/28 05:24:04;;;;;;;3.15;2.67;;;10.70;99.90;;;;;;4999949;28;20213;-70
2023/04/28 05:26:32;;;;;;;3.10;2.90;;;10.80;99.90;;;;;;5000710;28;20280;-70
2023/04/28 05:28:59;;;;;;;2.80;2.60;;;10.90;99.90;;;;;;5000466;28;21806;-70
2023/04/28 05:31:27;;;;;;;4.80;3.35;;;10.90;99.90;;;;;;4997797;28;20253;-70
2023/04/28 05:33:54;;;;;;;3.03;2.83;;;11.00;99.90;;;;;;4996536;28;20308;-70
2023/04/28 05:36:22;;;;;;;3.35;3.08;;;11.00;99.90;;;;;;4985878;28;20220;-69
2023/04/28 05:38:49;;;;;;;3.05;2.63;;;11.10;99.90;;;;;;4998733;28;20263;-69
2023/04/28 05:41:17;;;;;;;3.03;2.80;;;11.10;99.90;;;;;;4997405;28;20292;-69
2023/04/28 05:43:46;;;;;;;3.85;3.47;;;11.20;99.90;;;;;;5007868;28;20250;-69
2023/04/28 05:46:13;;;;;;;3.50;3.20;;;11.20;99.90;;;;;;5013145;28;20221;-69
2023/04/28 05:48:40;;;;;;;3.38;3.08;;;11.20;99.90;;;;;;5012630;28;20234;-69
2023/04/28 05:51:07;;;;;;;3.17;2.97;;;11.30;99.90;;;;;;5010256;28;20244;-69
2023/04/28 05:53:34;;;;;;;3.10;2.90;;;11.50;99.90;;;;;;5015887;28;20244;-70
2023/04/28 05:56:01;;;;;;;3.20;2.97;;;11.60;99.90;;;;;;4999552;28;20291;-69
2023/04/28 05:58:28;;;;;;;3.40;3.13;;;11.70;99.90;;;;;;4998320;28;20243;-71
2023/04/28 06:00:57;;;;;;;4.15;3.50;;;11.80;99.90;;;;;;4981625;28;20290;-70
2023/04/28 06:03:24;;;;;;;3.00;2.80;;;11.90;99.90;;;;;;4978733;28;20252;-70
2023/04/28 06:05:52;;;;;;;3.17;2.97;;;11.90;99.90;;;;;;4998668;28;20725;-71
2023/04/28 06:08:19;;;;;;;3.03;2.83;;;11.90;99.90;;;;;;4995184;28;20738;-70
2023/04/28 06:10:46;;;;;;;3.55;2.63;;;11.90;99.90;;;;;;4980948;28;20209;-71
2023/04/28 06:13:13;;;;;;;3.58;3.28;;;11.90;99.90;;;;;;4982296;28;20228;-71
2023/04/28 06:15:40;;;;;;;3.08;2.88;;;11.80;99.90;;;;;;5000573;28;20208;-71
2023/04/28 06:18:10;;;;;;;2.92;2.72;;;11.80;99.90;;;;;;5005396;28;20317;-71
2023/04/28 06:20:37;;;;;;;2.70;2.50;;;11.90;99.90;;;;;;4992968;28;20262;-71
2023/04/28 06:23:05;;;;;;;3.38;3.08;;;11.90;99.90;;;;;;4995488;28;20227;-72
2023/04/28 06:25:32;;;;;;;3.45;2.75;;;12.00;99.90;;;;;;4975973;28;20212;-71
2023/04/28 06:27:59;;;;;;;4.55;3.22;;;12.10;99.90;;;;;;4979482;28;20288;-72
2023/04/28 06:30:26;;;;;;;2.70;2.50;;;12.10;99.90;;;;;;4998097;28;20240;-71
2023/04/28 06:32:56;;;;;;;4.68;3.30;;;12.20;99.90;;;;;;4995303;28;20709;-72
2023/04/28 06:35:24;;;;;;;3.65;2.90;;;12.20;99.90;;;;;;4998665;28;20208;-70
2023/04/28 06:37:51;;;;;;;2.90;2.70;;;12.10;99.90;;;;;;4992101;28;21076;-73
2023/04/28 06:40:18;;;;;;;3.42;3.13;;;12.10;99.90;;;;;;4998949;28;20911;-71
2023/04/28 06:42:46;;;;;;;3.20;2.90;;;12.00;99.90;;;;;;4978063;28;20945;-70
2023/04/28 06:45:13;;;;;;;3.55;3.25;;;12.10;99.90;;;;;;4979277;28;20232;-71
2023/04/28 06:47:40;;;;;;;3.15;2.95;;;12.10;99.90;;;;;;4997101;28;20287;-70
2023/04/28 06:50:08;;;;;;;3.55;3.25;;;12.20;99.90;;;;;;4976110;28;20259;-70
2023/04/28 06:52:37;;;;;;;3.38;3.15;;;12.20;99.90;;;;;;4996197;28;20274;-70
2023/04/28 06:55:05;;;;;;;3.38;3.15;;;12.30;99.90;;;;;;4994971;28;20205;-70
2023/04/28 06:57:32;;;;;;;3.17;2.90;;;12.40;99.90;;;;;;4998386;28;20595;-70
2023/04/28 06:59:59;;;;;;;4.22;3.25;;;12.40;99.90;;;;;;4992104;28;20281;-70
2023/04/28 07:02:27;;;;;;;3.20;2.90;;;12.50;99.90;;;;;;4994879;28;20465;-70
2023/04/28 07:04:54;;;;;;;4.20;3.15;;;12.50;99.90;;;;;;4992321;28;20296;-70
2023/04/28 07:07:21;;;;;;;3.40;3.10;;;12.50;99.90;;;;;;4990265;28;20205;-70
2023/04/28 07:09:52;;;;;;;4.00;3.53;;;12.50;99.90;;;;;;4991638;28;20331;-70
2023/04/28 07:12:19;;;;;;;3.53;2.70;;;12.50;99.90;;;;;;4998611;28;20393;-70
2023/04/28 07:14:45;;;;;;;3.00;2.80;;;12.40;99.90;;;;;;4998152;28;20310;-70
2023/04/28 07:17:14;;;;;;;2.97;2.78;;;12.40;99.90;;;;;;4993206;28;20297;-70
2023/04/28 07:19:41;;;;;;;2.92;2.72;;;12.50;99.90;;;;;;4994648;28;20244;-69
2023/04/28 07:22:08;;;;;;;3.10;2.90;;;12.40;99.90;;;;;;4991760;28;20757;-70
2023/04/28 07:24:35;;;;;;;3.10;2.80;;;12.40;99.90;;;;;;4975904;28;20232;-70
2023/04/28 07:27:04;;;;;;;2.90;2.60;;;12.40;99.90;;;;;;4994682;28;20464;-70
2023/04/28 07:29:33;;;;;;;3.72;2.60;;;12.40;99.90;;;;;;4978146;28;20664;-70
2023/04/28 07:32:00;;;;;;;3.80;3.47;;;12.40;99.90;;;;;;4994254;28;20941;-70
2023/04/28 07:34:27;;;;;;;3.42;3.13;;;12.40;99.90;;;;;;4996626;28;20323;-69
2023/04/28 07:36:54;;;;;;;3.20;3.00;;;12.40;99.90;;;;;;4992384;28;20725;-70
2023/04/28 07:39:21;;;;;;;3.28;2.97;;;12.50;99.90;;;;;;4995135;28;20576;-70
2023/04/28 07:41:48;;;;;;;3.60;3.30;;;12.60;99.90;;;;;;4993524;28;20652;-70
2023/04/28 07:44:17;;;;;;;4.10;3.70;;;12.60;99.90;;;;;;4999494;28;20297;-70
2023/04/28 07:46:44;;;;;;;3.85;3.55;;;12.60;99.90;;;;;;4998242;28;20204;-70
2023/04/28 07:49:11;;;;;;;3.50;3.20;;;12.70;99.90;;;;;;5001812;28;20630;-70
2023/04/28 07:51:38;;;;;;;5.40;3.55;;;12.60;99.90;;;;;;4982472;28;20698;-70
2023/04/28 07:54:05;;;;;;;3.80;3.50;;;12.70;99.90;;;;;;4999786;28;20310;-70
2023/04/28 07:56:32;;;;;;;3.63;3.22;;;12.70;99.90;;;;;;4982158;28;20287;-70
2023/04/28 07:58:59;;;;;;;3.85;3.35;;;12.70;99.90;;;;;;4997874;28;20555;-70
2023/04/28 08:01:28;;;;;;;3.33;3.10;;;12.80;99.90;;;;;;4998533;28;20286;-70
2023/04/28 08:03:55;;;;;;;4.82;3.10;;;12.80;99.90;;;;;;4997905;28;20299;-70
2023/04/28 08:06:22;;;;;;;2.90;2.70;;;12.80;99.90;;;;;;4997606;28;20291;-70
2023/04/28 08:08:49;;;;;;;3.72;3.42;;;12.80;99.90;;;;;;4978795;28;20196;-70
2023/04/28 08:11:16;;;;;;;3.53;3.33;;;12.90;99.90;;;;;;4997338;28;20201;-70
2023/04/28 08:13:43;;;;;;;3.53;3.22;;;13.00;99.90;;;;;;4979892;28;20224;-70
2023/04/28 08:16:11;;;;;;;3.75;3.42;;;12.90;99.90;;;;;;4996074;28;20243;-70
2023/04/28 08:18:39;;;;;;;3.45;3.15;;;13.00;99.90;;;;;;4979544;28;20201;-70
2023/04/28 08:21:06;;;;;;;4.28;3.90;;;13.00;99.90;;;;;;4997263;28;20472;-70
2023/04/28 08:23:33;;;;;;;3.55;3.25;;;13.10;99.90;;;;;;5018727;28;20216;-70
2023/04/28 08:26:00;;;;;;;3.67;3.22;;;13.20;99.90;;;;;;5012398;28;20211;-70
2023/04/28 08:28:28;;;;;;;3.53;3.15;;;13.40;99.90;;;;;;4996881;28;20204;-70
2023/04/28 08:30:55;;;;;;;3.40;3.10;;;13.50;99.90;;;;;;4995425;28;20201;-70
2023/04/28 08:33:23;;;;;;;4.72;3.83;;;13.60;99.90;;;;;;4996550;28;20225;-70
2023/04/28 08:35:51;;;;;;;4.63;4.22;;;13.50;99.90;;;;;;4999185;28;20518;-70
2023/04/28 08:38:18;;;;;;;4.22;3.83;;;13.50;99.90;;;;;;4996769;28;20283;-70
2023/04/28 08:40:45;;;;;;;4.10;3.60;;;13.40;99.90;;;;;;5000902;28;20293;-70
2023/04/28 08:43:14;;;;;;;5.22;3.83;;;13.40;99.90;;;;;;4997669;28;20745;-70
2023/04/28 08:45:44;;;;;;;4.82;3.33;;;13.30;99.90;;;;;;4992389;28;20256;-70
2023/04/28 08:48:19;;;;;;;4.47;3.33;;;13.40;99.90;;;;;;4996591;28;20205;-70
2023/04/28 08:50:49;;;;;;;3.47;3.00;;;13.40;99.90;;;;;;4978268;28;20255;-70
2023/04/28 08:53:23;;;;;;;4.43;3.33;;;13.60;99.90;;;;;;4994383;28;20221;-70
2023/04/28 08:55:55;;;;;;;3.92;3.28;;;13.70;99.90;;;;;;4996244;28;20289;-70
2023/04/28 08:58:24;;;;;;;4.13;3.80;;;13.80;99.90;;;;;;4997771;28;20618;-70
2023/04/28 09:00:51;;;;;;;4.10;3.80;;;13.80;99.90;;;;;;4996604;28;20208;-71
2023/04/28 09:03:19;;;;;;;3.95;3.65;;;13.80;99.90;;;;;;4997690;28;20266;-70
2023/04/28 09:05:46;;;;;;;4.22;3.83;;;13.80;99.90;;;;;;4997857;28;20635;-69
2023/04/28 09:08:13;;;;;;;4.13;3.72;;;13.80;99.90;;;;;;4994328;28;20201;-70
2023/04/28 09:10:42;;;;;;;6.25;3.50;;;13.90;99.90;;;;;;4995212;28;20677;-70
2023/04/28 09:13:09;;;;;;;3.72;3.42;;;14.00;99.90;;;;;;4994697;28;20216;-70
2023/04/28 09:15:39;;;;;;;3.88;3.58;;;14.20;99.90;;;;;;4998627;28;20292;-70
2023/04/28 09:18:08;;;;;;;5.22;4.13;;;14.40;99.90;;;;;;4996381;28;20212;-70
2023/04/28 09:20:36;;;;;;;5.10;3.72;;;14.50;99.90;;;;;;4994498;28;20442;-70
2023/04/28 09:23:17;;;;;;;5.43;4.32;;;14.60;99.90;;;;;;4996667;28;20863;-71
2023/04/28 09:26:03;;;;;;;4.72;3.55;;;14.90;99.90;;;;;;4975214;28;20666;-70
2023/04/28 09:28:30;;;;;;;4.22;3.83;;;15.20;99.90;;;;;;4995514;28;20419;-70
2023/04/28 09:30:57;;;;;;;4.65;3.78;;;15.50;99.90;;;;;;4996653;28;20196;-70
2023/04/28 09:33:25;;;;;;;3.72;3.40;;;16.10;99.90;;;;;;4997539;28;20761;-70
2023/04/28 09:35:53;;;;;;;5.35;4.05;;;16.40;99.90;;;;;;4993721;28;20267;-70
2023/04/28 09:38:21;;;;;;;4.93;4.25;;;16.70;99.90;;;;;;4979090;28;20649;-70
2023/04/28 09:40:59;;;;;;;4.68;3.90;;;17.20;99.90;;;;;;4992731;28;20903;-70
2023/04/28 09:43:31;;;;;;;3.78;3.38;;;17.70;99.90;;;;;;4991657;28;20243;-70
2023/04/28 09:45:59;;;;;;;5.43;3.78;;;17.60;99.90;;;;;;4993733;28;20197;-70
2023/04/28 09:48:31;;;;;;;5.47;4.47;;;17.60;99.90;;;;;;4998463;28;20286;-70
2023/04/28 09:50:59;;;;;;;3.65;3.35;;;17.60;99.90;;;;;;4995404;28;20274;-70
2023/04/28 09:53:27;;;;;;;4.05;3.65;;;17.80;99.90;;;;;;4981033;28;20219;-70
2023/04/28 09:55:56;;;;;;;3.97;3.58;;;17.80;99.90;;;;;;4993911;28;20296;-70
2023/04/28 09:58:26;;;;;;;3.80;3.50;;;17.60;99.90;;;;;;4984863;28;20196;-70
2023/04/28 10:00:55;;;;;;;4.50;2.90;;;17.60;99.90;;;;;;4975891;28;20205;-70
2023/04/28 10:03:24;;;;;;;3.85;3.33;;;18.00;99.90;;;;;;4996228;28;20310;-70
2023/04/28 10:05:52;;;;;;;4.18;3.65;;;18.60;99.90;;;;;;4993338;28;20215;-70
2023/04/28 10:08:20;;;;;;;4.35;3.47;;;18.50;99.90;;;;;;4995073;28;20670;-70
2023/04/28 10:10:49;;;;;;;4.22;3.83;;;18.40;99.90;;;;;;4995670;28;20623;-70
2023/04/28 10:13:18;;;;;;;4.38;3.72;;;18.20;99.90;;;;;;4978739;28;20328;-70
2023/04/28 10:15:47;;;;;;;4.90;4.13;;;18.10;99.90;;;;;;4997578;28;20283;-70
2023/04/28 10:18:15;;;;;;;5.07;4.15;;;18.10;99.90;;;;;;4994484;28;20540;-70
2023/04/28 10:20:44;;;;;;;3.90;3.60;;;18.10;99.90;;;;;;4997701;28;20295;-71
2023/04/28 10:23:36;;;;;;;4.10;3.58;;;18.30;99.90;;;;;;4998809;28;20260;-70
2023/04/28 10:26:05;;;;;;;4.97;3.90;;;18.80;99.90;;;;;;4993225;28;20236;-70
2023/04/28 10:28:32;;;;;;;4.43;3.80;;;18.90;99.90;;;;;;4995015;28;20227;-70
2023/04/28 10:31:11;;;;;;;4.68;3.97;;;19.10;99.90;;;;;;4993605;28;20597;-70
2023/04/28 10:33:39;;;;;;;4.57;4.13;;;19.10;99.90;;;;;;4992613;28;20226;-70
2023/04/28 10:36:07;;;;;;;4.47;4.07;;;19.30;99.90;;;;;;4996146;28;20291;-70
2023/04/28 10:38:35;;;;;;;4.50;4.10;;;19.40;99.90;;;;;;4994484;28;20283;-70
2023/04/28 10:41:03;;;;;;;5.80;4.50;;;19.50;99.90;;;;;;4992119;28;20294;-70
2023/04/28 10:43:36;;;;;;;7.40;4.50;;;19.70;99.90;;;;;;4993808;28;20771;-70
2023/04/28 10:46:06;;;;;;;4.85;4.35;;;19.60;99.90;;;;;;4993464;28;20646;-71
2023/04/28 10:49:08;;;;;;;4.13;3.80;;;19.20;99.90;;;;;;4983323;28;20211;-71
2023/04/28 10:51:36;;;;;;;4.28;3.75;;;19.10;99.90;;;;;;4995867;28;20204;-71
2023/04/28 10:54:18;;;;;;;4.53;3.72;;;19.20;99.90;;;;;;4996962;28;20261;-70
2023/04/28 10:57:25;;;;;;;4.38;3.10;;;19.50;99.90;;;;;;4976833;28;20750;-71
2023/04/28 10:59:52;;;;;;;4.43;3.42;;;19.80;99.90;;;;;;4999105;28;20591;-70
2023/04/28 11:02:49;;;;;;;6.82;4.72;;;19.70;99.90;;;;;;4983580;28;20308;-70
2023/04/28 11:05:20;;;;;;;5.78;4.50;;;19.80;99.90;;;;;;4996249;28;20548;-70
2023/04/28 11:08:32;;;;;;;4.90;4.30;;;19.30;99.90;;;;;;4962109;28;20759;-70
2023/04/28 11:11:24;;;;;;;3.92;3.53;;;19.30;99.90;;;;;;4993407;28;20200;-70
2023/04/28 11:13:53;;;;;;;5.50;4.20;;;19.60;99.90;;;;;;4994871;28;20954;-71
2023/04/28 11:16:21;;;;;;;4.90;4.32;;;19.60;99.90;;;;;;4997424;28;20862;-70
2023/04/28 11:18:54;;;;;;;3.67;3.38;;;19.90;99.90;;;;;;4995285;28;20319;-71
2023/04/28 11:21:24;;;;;;;4.10;3.70;;;20.00;99.90;;;;;;4998232;28;20235;-70
2023/04/28 11:23:52;;;;;;;4.07;3.78;;;20.00;99.90;;;;;;4994569;28;20314;-70
2023/04/28 11:26:20;;;;;;;4.75;4.28;;;19.80;99.90;;;;;;5009358;28;20263;-71
2023/04/28 11:28:48;;;;;;;4.65;4.25;;;19.50;99.90;;;;;;4997154;28;20200;-70
2023/04/28 11:31:19;;;;;;;4.65;3.58;;;19.30;99.90;;;;;;4996181;28;20325;-70
2023/04/28 11:33:49;;;;;;;4.57;4.15;;;19.00;99.90;;;;;;4994029;28;20220;-71
2023/04/28 11:36:38;;;;;;;3.72;3.33;;;18.80;99.90;;;;;;4994882;28;20501;-70
2023/04/28 11:39:07;;;;;;;4.68;4.28;;;18.70;99.90;;;;;;4993186;28;20712;-71
2023/04/28 11:41:35;;;;;;;4.00;3.60;;;18.70;99.90;;;;;;4994297;28;20224;-71
2023/04/28 11:44:10;;;;;;;3.60;3.00;;;18.50;99.90;;;;;;4978122;28;20220;-70
2023/04/28 11:46:49;;;;;;;3.90;3.53;;;18.40;99.90;;;;;;4994204;28;20223;-71
2023/04/28 11:49:16;;;;;;;3.30;3.00;;;18.30;99.90;;;;;;4981058;28;20319;-71
2023/04/28 11:51:48;;;;;;;4.28;3.88;;;18.20;99.90;;;;;;4992605;28;20254;-70
2023/04/28 11:54:21;;;;;;;4.63;4.22;;;18.00;99.90;;;;;;4997399;28;20726;-70
2023/04/28 11:56:49;;;;;;;4.53;3.85;;;17.80;99.90;;;;;;4996673;28;20579;-71
2023/04/28 11:59:16;;;;;;;4.57;4.07;;;17.70;99.90;;;;;;4996338;28;20742;-70
2023/04/28 12:01:49;;;;;;;3.72;3.42;;;17.70;99.90;;;;;;4972630;28;20608;-71
2023/04/28 12:04:34;;;;;;;4.20;3.53;;;17.90;99.90;;;;;;4997315;28;20700;-70
2023/04/28 12:07:04;;;;;;;5.55;4.40;;;18.20;99.90;;;;;;4981297;28;20283;-70
2023/04/28 12:09:33;;;;;;;5.47;4.00;;;18.20;99.90;;;;;;4992624;28;20300;-70
2023/04/28 12:12:01;;;;;;;4.75;4.22;;;18.10;99.90;;;;;;4993500;28;20713;-71
2023/04/28 12:14:30;;;;;;;5.18;4.43;;;18.00;99.90;;;;;;4964395;28;20212;-71
2023/04/28 12:16:57;;;;;;;4.50;4.07;;;18.00;99.90;;;;;;5002199;28;20201;-70
2023/04/28 12:19:24;;;;;;;4.60;4.20;;;18.00;99.90;;;;;;5008439;28;20246;-70
2023/04/28 12:22:04;;;;;;;4.75;4.35;;;18.00;99.90;;;;;;5011416;28;20228;-71
2023/04/28 12:24:32;;;;;;;6.03;3.67;;;17.80;99.90;;;;;;4997889;28;20697;-70
2023/04/28 12:27:16;;;;;;;6.18;3.72;;;17.60;99.90;;;;;;4995591;28;20201;-71
2023/04/28 12:29:44;;;;;;;6.28;4.30;;;17.50;99.90;;;;;;5004568;28;20207;-71
2023/04/28 12:32:12;;;;;;;5.32;3.95;;;17.50;99.90;;;;;;4995169;28;20257;-70
2023/04/28 12:34:41;;;;;;;9.38;4.43;;;17.50;99.90;;;;;;4992916;28;20322;-70
2023/04/28 12:37:11;;;;;;;4.60;4.20;;;17.70;99.90;;;;;;4995922;28;20663;-70
2023/04/28 12:39:40;;;;;;;5.65;4.38;;;18.00;99.90;;;;;;4993491;28;20212;-70
2023/04/28 12:42:07;;;;;;;4.43;4.10;;;18.40;99.90;;;;;;4995633;28;20307;-70
2023/04/28 12:44:36;;;;;;;5.65;4.18;;;18.50;99.90;;;;;;4983086;28;20202;-70
2023/04/28 12:47:06;;;;;;;3.92;3.63;;;18.80;99.90;;;;;;5000615;28;20731;-70
2023/04/28 12:49:33;;;;;;;4.05;3.67;;;19.00;99.90;;;;;;4997557;28;20215;-71
2023/04/28 12:52:00;;;;;;;4.18;3.78;;;19.30;99.90;;;;;;4990046;28;20212;-71
2023/04/28 12:54:29;;;;;;;5.70;4.20;;;19.50;99.90;;;;;;4999450;28;20730;-71
2023/04/28 12:56:56;;;;;;;5.07;3.60;;;19.50;99.90;;;;;;4996860;28;20295;-71